Terminal Aerodrome Forecast
Issued by NWS Sioux Falls, SD

Home | Current Version | Previous Version | Graphics & Text | Print | Product List | Glossary On
Versions: 1 2 3 4 5 6 7 8 9 10 11 12 13 14 15 16 17 18 19 20 21 22 23
000
FTUS43 KFSD 231347 AAA
TAFSUX
TAF AMD
KSUX 231347Z 2314/2412 VRB02KT 1/4SM FG VV002
     FM231430 VRB03KT 1/2SM FG BKN003
      TEMPO 2315/2316 3SM BR SCT005
     FM231600 25006KT P6SM SKC
     FM232000 21007KT P6SM SKC
     FM240000 14005KT P6SM SCT250
     FM240800 15006KT 3SM BR SCT150=

USA.gov is the U.S. government's official web portal to all federal, state and local government web resources and services.